Lena-s. — V2EC7 — position and weather

sailwx.info

Track history (hours):
 
Tides and Currents Weather Stations Pressure Air Temp Water Temp Dewpoint Dewpoint Depression Visibility Wind Speed Wind Dir Waves Ship Positions

Lena-s.

Last reported at 2015-Aug-31 10:32 UTC. Time now 2015-Sep-01 14:16 UTC.
Position N 36°57' W 076°20'.

Length 261 m; draft 10 m.

Type: Ship (hazmat cat D). MMSI: 305386000.

Date/timePositionNaut miles runAvg speedWind from/ knotsBaromVisibWave heightAir tempDewpointWater temp
2015-Aug-31 10:32N 36°57' W 076°20'1713.3
2015-Aug-31 09:17N 36°57' W 075°59'6 7.7
2015-Aug-31 08:32N 36°54' W 075°53'6 6.2
2015-Aug-31 07:33N 36°50' W 075°47'13 9.1
2015-Aug-31 06:08N 36°42' W 075°34'6 9.7
2015-Aug-31 05:33N 36°38' W 075°29'10 9.6
2015-Aug-31 04:32N 36°31' W 075°22'9 9.6
2015-Aug-31 03:34N 36°23' W 075°14'10 9.6
2015-Aug-31 02:34N 36°14' W 075°13'1010.1
2015-Aug-31 01:33N 36°04' W 075°12'1010.1
2015-Aug-31 00:33N 35°54' W 075°11'48 9.6
2015-Aug-30 19:33N 35°05' W 075°11'1210.2
2015-Aug-30 18:22N 34°56' W 075°20'910.6
2015-Aug-30 17:33N 34°49' W 075°26'1210.1
2015-Aug-30 16:22N 34°40' W 075°35'9 9.7
2015-Aug-30 15:25N 34°33' W 075°44'13 9.7
2015-Aug-30 14:07N 34°25' W 075°55'7 9.6
2015-Aug-30 13:23N 34°21' W 076°02'11 9.6
2015-Aug-30 12:12N 34°13' W 076°12'710.7
2015-Aug-30 11:33N 34°10' W 076°20'1110.8
2015-Aug-30 10:33N 34°04' W 076°30'1110.8
2015-Aug-30 09:33N 33°57' W 076°40'22710.2
2015-Aug-29 11:19N 31°59' W 080°32'810.9
2015-Aug-29 10:33N 31°57' W 080°41'1010.2
2015-Aug-29 09:33N 32°02' W 080°52'9 8.7
2015-Aug-29 08:34N 32°06' W 081°01'5 5.4
2015-Aug-29 07:33N 32°06' W 081°07'2 2.1
2015-Aug-29 06:31N 32°08' W 081°09'0 0.0
2015-Aug-29 05:31N 32°08' W 081°09'0 0.0
2015-Aug-29 04:31N 32°08' W 081°09'0 0.0
2015-Aug-29 03:31N 32°08' W 081°09'0 0.0
2015-Aug-29 02:31N 32°08' W 081°09'0 0.0
2015-Aug-29 01:31N 32°08' W 081°09'0 0.0
2015-Aug-29 00:31N 32°08' W 081°09'0 0.0
2015-Aug-28 23:31N 32°08' W 081°09'0 0.0
2015-Aug-28 22:31N 32°08' W 081°09'0 0.0
2015-Aug-28 21:31N 32°08' W 081°09'3 2.6
2015-Aug-28 20:33N 32°06' W 081°07'6 6.1
2015-Aug-28 19:33N 32°06' W 080°60'1212.2
2015-Aug-28 18:33N 31°60' W 080°47'1010.3
2015-Aug-28 17:32N 31°58' W 080°35'56013.9
2015-Aug-27 01:22N 39°33' W 073°53'1315.9
2015-Aug-27 00:33N 39°45' W 073°52'3616.0
2015-Aug-26 22:19N 40°21' W 073°49'810.2
2015-Aug-26 21:33N 40°28' W 073°53'1212.4
2015-Aug-26 20:34N 40°38' W 074°03'5 4.5
2015-Aug-26 19:31N 40°40' W 074°08'0 0.0
2015-Aug-26 18:31N 40°40' W 074°08'0 0.0
2015-Aug-26 17:31N 40°40' W 074°08'0 0.0
2015-Aug-26 16:31N 40°40' W 074°08'0 0.0
2015-Aug-26 15:31N 40°40' W 074°08'0 0.0
2015-Aug-26 14:31N 40°40' W 074°08'0 0.0
2015-Aug-26 13:31N 40°40' W 074°08'0 0.0
2015-Aug-26 12:31N 40°40' W 074°08'0 0.0
2015-Aug-26 11:31N 40°40' W 074°08'0 0.0
2015-Aug-26 10:31N 40°40' W 074°08'0 0.0
2015-Aug-26 09:31N 40°40' W 074°08'0 0.0
2015-Aug-26 08:31N 40°40' W 074°08'0 0.0
2015-Aug-26 07:31N 40°40' W 074°08'0 0.0
2015-Aug-26 06:31N 40°40' W 074°08'0 0.0
2015-Aug-26 05:31N 40°40' W 074°08'0 0.0
2015-Aug-26 04:31N 40°40' W 074°08'0 0.2
2015-Aug-26 03:31N 40°40' W 074°08'0 0.0
2015-Aug-26 02:31N 40°40' W 074°08'0 0.0
2015-Aug-26 01:31N 40°40' W 074°08'0 0.0
2015-Aug-26 00:31N 40°40' W 074°08'0 0.0
2015-Aug-25 23:31N 40°40' W 074°08'0 0.0
2015-Aug-25 22:31N 40°40' W 074°09'0 0.0
2015-Aug-25 21:31N 40°40' W 074°09'0 0.0
2015-Aug-25 20:31N 40°40' W 074°09'0 0.0
2015-Aug-25 19:31N 40°40' W 074°09'0 0.0
2015-Aug-25 18:31N 40°40' W 074°09'0 0.0
2015-Aug-25 17:31N 40°40' W 074°09'0 0.0
2015-Aug-25 16:31N 40°40' W 074°09'0 0.0
2015-Aug-25 15:31N 40°40' W 074°09'0 0.0
2015-Aug-25 14:31N 40°40' W 074°09'0 0.0
2015-Aug-25 13:31N 40°40' W 074°09'0 0.0
2015-Aug-25 12:31N 40°40' W 074°09'0 0.0
2015-Aug-25 11:31N 40°40' W 074°09'0 0.0
2015-Aug-25 10:31N 40°40' W 074°09'0 0.0
2015-Aug-25 09:31N 40°40' W 074°09'0 0.0
2015-Aug-25 08:31N 40°40' W 074°09'0 0.0
2015-Aug-25 07:31N 40°40' W 074°09'0 0.0
2015-Aug-25 06:31N 40°40' W 074°09'0 0.0
2015-Aug-25 05:31N 40°40' W 074°09'0 0.0
2015-Aug-25 04:31N 40°40' W 074°09'0 0.0
2015-Aug-25 03:31N 40°40' W 074°09'0 0.0
2015-Aug-25 02:31N 40°40' W 074°09'0 0.0
2015-Aug-25 01:31N 40°40' W 074°09'0 0.0
2015-Aug-25 00:31N 40°40' W 074°09'0 0.0
2015-Aug-24 23:31N 40°40' W 074°09'0 0.0
2015-Aug-24 22:31N 40°40' W 074°09'0 0.0
2015-Aug-24 21:33N 40°40' W 074°09'3 2.7
2015-Aug-24 20:33N 40°39' W 074°05'1110.9
2015-Aug-24 19:33N 40°30' W 073°57'10 9.7
2015-Aug-24 18:33N 40°27' W 073°45'1312.8
2015-Aug-24 17:33N 40°28' W 073°28'1817.6
2015-Aug-24 16:33N 40°29' W 073°05'7218.0
2015-Aug-24 12:33N 40°31' W 071°30'1917.4
2015-Aug-24 11:28N 40°32' W 071°06'1618.0
2015-Aug-24 10:34N 40°32' W 070°44'1818.3
2015-Aug-24 09:34N 40°32' W 070°20'1818.3
2015-Aug-24 08:34N 40°33' W 069°56'1918.6
2015-Aug-24 07:34N 40°33' W 069°31'2318.5
2015-Aug-24 06:20N 40°31' W 069°01'2019.2
2015-Aug-24 05:16N 40°28' W 068°35'  
Track history (hours):
 
Tides and Currents Weather Stations Pressure Air Temp Water Temp Dewpoint Dewpoint Depression Visibility Wind Speed Wind Dir Waves Ship Positions

Lena-s.

Last reported at 2015-Aug-31 10:32 UTC. Time now 2015-Sep-01 14:16 UTC.
Position N 36°57' W 076°20'.

Length 261 m; draft 10 m.

Type: Ship (hazmat cat D). MMSI: 305386000.

Date/timePositionNaut miles runAvg speedWind from/ knotsBaromVisibWave heightAir tempDewpointWater temp
2015-Aug-31 10:32N 36°57' W 076°20'1713.3
2015-Aug-31 09:17N 36°57' W 075°59'6 7.7
2015-Aug-31 08:32N 36°54' W 075°53'6 6.2
2015-Aug-31 07:33N 36°50' W 075°47'13 9.1
2015-Aug-31 06:08N 36°42' W 075°34'6 9.7
2015-Aug-31 05:33N 36°38' W 075°29'10 9.6
2015-Aug-31 04:32N 36°31' W 075°22'9 9.6
2015-Aug-31 03:34N 36°23' W 075°14'10 9.6
2015-Aug-31 02:34N 36°14' W 075°13'1010.1
2015-Aug-31 01:33N 36°04' W 075°12'1010.1
2015-Aug-31 00:33N 35°54' W 075°11'48 9.6
2015-Aug-30 19:33N 35°05' W 075°11'1210.2
2015-Aug-30 18:22N 34°56' W 075°20'910.6
2015-Aug-30 17:33N 34°49' W 075°26'1210.1
2015-Aug-30 16:22N 34°40' W 075°35'9 9.7
2015-Aug-30 15:25N 34°33' W 075°44'13 9.7
2015-Aug-30 14:07N 34°25' W 075°55'7 9.6
2015-Aug-30 13:23N 34°21' W 076°02'11 9.6
2015-Aug-30 12:12N 34°13' W 076°12'710.7
2015-Aug-30 11:33N 34°10' W 076°20'1110.8
2015-Aug-30 10:33N 34°04' W 076°30'1110.8
2015-Aug-30 09:33N 33°57' W 076°40'22710.2
2015-Aug-29 11:19N 31°59' W 080°32'810.9
2015-Aug-29 10:33N 31°57' W 080°41'1010.2
2015-Aug-29 09:33N 32°02' W 080°52'9 8.7
2015-Aug-29 08:34N 32°06' W 081°01'5 5.4
2015-Aug-29 07:33N 32°06' W 081°07'2 2.1
2015-Aug-29 06:31N 32°08' W 081°09'0 0.0
2015-Aug-29 05:31N 32°08' W 081°09'0 0.0
2015-Aug-29 04:31N 32°08' W 081°09'0 0.0
2015-Aug-29 03:31N 32°08' W 081°09'0 0.0
2015-Aug-29 02:31N 32°08' W 081°09'0 0.0
2015-Aug-29 01:31N 32°08' W 081°09'0 0.0
2015-Aug-29 00:31N 32°08' W 081°09'0 0.0
2015-Aug-28 23:31N 32°08' W 081°09'0 0.0
2015-Aug-28 22:31N 32°08' W 081°09'0 0.0
2015-Aug-28 21:31N 32°08' W 081°09'3 2.6
2015-Aug-28 20:33N 32°06' W 081°07'6 6.1
2015-Aug-28 19:33N 32°06' W 080°60'1212.2
2015-Aug-28 18:33N 31°60' W 080°47'1010.3
2015-Aug-28 17:32N 31°58' W 080°35'56013.9
2015-Aug-27 01:22N 39°33' W 073°53'1315.9
2015-Aug-27 00:33N 39°45' W 073°52'3616.0
2015-Aug-26 22:19N 40°21' W 073°49'810.2
2015-Aug-26 21:33N 40°28' W 073°53'1212.4
2015-Aug-26 20:34N 40°38' W 074°03'5 4.5
2015-Aug-26 19:31N 40°40' W 074°08'0 0.0
2015-Aug-26 18:31N 40°40' W 074°08'0 0.0
2015-Aug-26 17:31N 40°40' W 074°08'0 0.0
2015-Aug-26 16:31N 40°40' W 074°08'0 0.0
2015-Aug-26 15:31N 40°40' W 074°08'0 0.0
2015-Aug-26 14:31N 40°40' W 074°08'0 0.0
2015-Aug-26 13:31N 40°40' W 074°08'0 0.0
2015-Aug-26 12:31N 40°40' W 074°08'0 0.0
2015-Aug-26 11:31N 40°40' W 074°08'0 0.0
2015-Aug-26 10:31N 40°40' W 074°08'0 0.0
2015-Aug-26 09:31N 40°40' W 074°08'0 0.0
2015-Aug-26 08:31N 40°40' W 074°08'0 0.0
2015-Aug-26 07:31N 40°40' W 074°08'0 0.0
2015-Aug-26 06:31N 40°40' W 074°08'0 0.0
2015-Aug-26 05:31N 40°40' W 074°08'0 0.0
2015-Aug-26 04:31N 40°40' W 074°08'0 0.2
2015-Aug-26 03:31N 40°40' W 074°08'0 0.0
2015-Aug-26 02:31N 40°40' W 074°08'0 0.0
2015-Aug-26 01:31N 40°40' W 074°08'0 0.0
2015-Aug-26 00:31N 40°40' W 074°08'0 0.0
2015-Aug-25 23:31N 40°40' W 074°08'0 0.0
2015-Aug-25 22:31N 40°40' W 074°09'0 0.0
2015-Aug-25 21:31N 40°40' W 074°09'0 0.0
2015-Aug-25 20:31N 40°40' W 074°09'0 0.0
2015-Aug-25 19:31N 40°40' W 074°09'0 0.0
2015-Aug-25 18:31N 40°40' W 074°09'0 0.0
2015-Aug-25 17:31N 40°40' W 074°09'0 0.0
2015-Aug-25 16:31N 40°40' W 074°09'0 0.0
2015-Aug-25 15:31N 40°40' W 074°09'0 0.0
2015-Aug-25 14:31N 40°40' W 074°09'0 0.0
2015-Aug-25 13:31N 40°40' W 074°09'0 0.0
2015-Aug-25 12:31N 40°40' W 074°09'0 0.0
2015-Aug-25 11:31N 40°40' W 074°09'0 0.0
2015-Aug-25 10:31N 40°40' W 074°09'0 0.0
2015-Aug-25 09:31N 40°40' W 074°09'0 0.0
2015-Aug-25 08:31N 40°40' W 074°09'0 0.0
2015-Aug-25 07:31N 40°40' W 074°09'0 0.0
2015-Aug-25 06:31N 40°40' W 074°09'0 0.0
2015-Aug-25 05:31N 40°40' W 074°09'0 0.0
2015-Aug-25 04:31N 40°40' W 074°09'0 0.0
2015-Aug-25 03:31N 40°40' W 074°09'0 0.0
2015-Aug-25 02:31N 40°40' W 074°09'0 0.0
2015-Aug-25 01:31N 40°40' W 074°09'0 0.0
2015-Aug-25 00:31N 40°40' W 074°09'0 0.0
2015-Aug-24 23:31N 40°40' W 074°09'0 0.0
2015-Aug-24 22:31N 40°40' W 074°09'0 0.0
2015-Aug-24 21:33N 40°40' W 074°09'3 2.7
2015-Aug-24 20:33N 40°39' W 074°05'1110.9
2015-Aug-24 19:33N 40°30' W 073°57'10 9.7
2015-Aug-24 18:33N 40°27' W 073°45'1312.8
2015-Aug-24 17:33N 40°28' W 073°28'1817.6
2015-Aug-24 16:33N 40°29' W 073°05'7218.0
2015-Aug-24 12:33N 40°31' W 071°30'1917.4
2015-Aug-24 11:28N 40°32' W 071°06'1618.0
2015-Aug-24 10:34N 40°32' W 070°44'1818.3
2015-Aug-24 09:34N 40°32' W 070°20'1818.3
2015-Aug-24 08:34N 40°33' W 069°56'1918.6
2015-Aug-24 07:34N 40°33' W 069°31'2318.5
2015-Aug-24 06:20N 40°31' W 069°01'2019.2
2015-Aug-24 05:16N 40°28' W 068°35'  

Dump ship's entire track history